Ufimets — UFNC — position and weather

sailwx.info

Track history (hours):
 
Tides and Currents Weather Stations Pressure Air Temp Water Temp Dewpoint Dewpoint Depression Visibility Wind Speed Wind Dir Waves Ship Positions

Ufimets

Last reported at 2015-Jun-28 23:29 UTC. Time now 2015-Jul-03 22:04 UTC.
Position N 59°55' E 030°24'.

Length 82 m; draft 1.8 m.

Type: Ship. MMSI: 27343260.

Date/timePositionNaut miles runAvg speedWind from/ knotsBaromVisibWave heightAir tempDewpointWater temp
2015-Jun-28 23:29N 59°55' E 030°24'4 3.9
2015-Jun-28 22:33N 59°56' E 030°17'0 0.2
2015-Jun-28 21:33N 59°56' E 030°17'0 0.0
2015-Jun-28 20:33N 59°56' E 030°17'0 0.0
2015-Jun-28 19:33N 59°56' E 030°17'0 0.0
2015-Jun-28 18:32N 59°56' E 030°17'0 0.0
2015-Jun-28 17:27N 59°56' E 030°17'0 0.0
2015-Jun-28 16:31N 59°56' E 030°17'0 0.0
2015-Jun-28 15:33N 59°56' E 030°17'0 0.0
2015-Jun-28 14:33N 59°56' E 030°17'0 0.0
2015-Jun-28 13:33N 59°56' E 030°17'0 0.1
2015-Jun-28 12:33N 59°56' E 030°17'0 0.0
2015-Jun-28 11:32N 59°56' E 030°17'0 0.0
2015-Jun-28 10:33N 59°56' E 030°17'0 0.0
2015-Jun-28 09:32N 59°56' E 030°17'0 0.2
2015-Jun-28 08:32N 59°56' E 030°17'5 5.2
2015-Jun-28 07:33N 59°57' E 030°07'8 7.5
2015-Jun-28 06:29N 59°57' E 029°51'  
2015-Jun-24 03:32N 59°59' E 029°45'5 4.7
2015-Jun-24 02:32N 59°57' E 029°53'6 6.3
2015-Jun-24 01:33N 59°54' E 030°05'6 5.9
2015-Jun-24 00:32N 59°56' E 030°16'4 3.8
2015-Jun-23 23:32N 59°55' E 030°24'0 0.0
2015-Jun-23 22:32N 59°55' E 030°24'0 0.0
2015-Jun-23 21:32N 59°55' E 030°24'  
Track history (hours):
 
Tides and Currents Weather Stations Pressure Air Temp Water Temp Dewpoint Dewpoint Depression Visibility Wind Speed Wind Dir Waves Ship Positions

Ufimets

Last reported at 2015-Jun-28 23:29 UTC. Time now 2015-Jul-03 22:04 UTC.
Position N 59°55' E 030°24'.

Length 82 m; draft 1.8 m.

Type: Ship. MMSI: 27343260.

Date/timePositionNaut miles runAvg speedWind from/ knotsBaromVisibWave heightAir tempDewpointWater temp
2015-Jun-28 23:29N 59°55' E 030°24'4 3.9
2015-Jun-28 22:33N 59°56' E 030°17'0 0.2
2015-Jun-28 21:33N 59°56' E 030°17'0 0.0
2015-Jun-28 20:33N 59°56' E 030°17'0 0.0
2015-Jun-28 19:33N 59°56' E 030°17'0 0.0
2015-Jun-28 18:32N 59°56' E 030°17'0 0.0
2015-Jun-28 17:27N 59°56' E 030°17'0 0.0
2015-Jun-28 16:31N 59°56' E 030°17'0 0.0
2015-Jun-28 15:33N 59°56' E 030°17'0 0.0
2015-Jun-28 14:33N 59°56' E 030°17'0 0.0
2015-Jun-28 13:33N 59°56' E 030°17'0 0.1
2015-Jun-28 12:33N 59°56' E 030°17'0 0.0
2015-Jun-28 11:32N 59°56' E 030°17'0 0.0
2015-Jun-28 10:33N 59°56' E 030°17'0 0.0
2015-Jun-28 09:32N 59°56' E 030°17'0 0.2
2015-Jun-28 08:32N 59°56' E 030°17'5 5.2
2015-Jun-28 07:33N 59°57' E 030°07'8 7.5
2015-Jun-28 06:29N 59°57' E 029°51'  
2015-Jun-24 03:32N 59°59' E 029°45'5 4.7
2015-Jun-24 02:32N 59°57' E 029°53'6 6.3
2015-Jun-24 01:33N 59°54' E 030°05'6 5.9
2015-Jun-24 00:32N 59°56' E 030°16'4 3.8
2015-Jun-23 23:32N 59°55' E 030°24'0 0.0
2015-Jun-23 22:32N 59°55' E 030°24'0 0.0
2015-Jun-23 21:32N 59°55' E 030°24'  

Dump ship's entire track history